^^
Datos históricos de la estación: Murcia-Puente Tocinos
Diario Informe para Septiembre 14, 2019 Unidades:  Ingés    Métrico   Ambas
Diario Semanal Mensual Anual
  Máxima: Mínima: Promedio:
Temperatura: 72.1 °F 67.5 °F 70.3 °F
Punto de rocio: 67.3 °F 64.9 °F 65.8 °F
Humedad: 94% 79% 86%
Velocidad viento: 5.9mph 0mph 1.4mph
Racha viento: 39.1mph - -
Viento- - SSE
Presión: 30 in 29.8 in -
Precipitación: 0.12 in    
 
 
Tabla de datos para Septiembre 14, 2019
Hora Temperatura Punto de rocio Presión Viento Velocidad viento Racha viento Humedad Intensidad lluvia(por hora) Nubes
00:04 70.2 °F 67.1 °F 30 in NE 3.1 mph 5.2 mph 90% 0 in
00:09 70 °F 67.1 °F 30 in NE 3 mph 5.2 mph 90.5% 0 in
00:14 70 °F 67.3 °F 30 in NE 2.9 mph 5 mph 91% 0 in
00:19 70 °F 67.3 °F 30 in NE 2.5 mph 3.5 mph 91% 0 in
00:24 70 °F 67.3 °F 30 in NE 1.4 mph 3.5 mph 91% 0 in
00:29 70 °F 67.3 °F 30 in NE 1.5 mph 3 mph 91% 0 in
00:34 70 °F 67.3 °F 30 in NE 1.8 mph 3 mph 91% 0 in
00:39 69.8 °F 67.1 °F 30 in NE 1.4 mph 2.4 mph 91% 0 in
00:44 69.8 °F 67.1 °F 30 in Calm   4.7 mph 91% 0 in
00:49 69.6 °F 66.9 °F 30 in Este 0.6 mph 5 mph 91% 0 in
00:54 69.6 °F 66.9 °F 30 in Este 2.9 mph 5 mph 91% 0 in
00:59 69.6 °F 66.9 °F 30 in Este 2.8 mph 4.7 mph 91% 0 in
01:04 69.6 °F 66.9 °F 30 in Este 2.4 mph 5 mph 91% 0 in
01:09 69.6 °F 66.9 °F 30 in Este 2.3 mph 4 mph 91% 0 in
01:14 69.6 °F 66.9 °F 30 in Este 2 mph 4 mph 91% 0 in
01:19 69.8 °F 67.1 °F 30 in Este 1.9 mph 3 mph 91% 0 in
01:24 69.8 °F 67.1 °F 30 in Este 1.4 mph 2.4 mph 90.9% 0 in
01:29 70 °F 66.9 °F 30 in Este 1.4 mph 3.5 mph 90% 0 in
01:34 70 °F 66.9 °F 30 in Este 1.4 mph 3.6 mph 90% 0 in
01:39 70.2 °F 67.1 °F 30 in ESE 1.6 mph 5.2 mph 90% 0 in
01:44 70.2 °F 67.1 °F 30 in SSE 2.4 mph 5 mph 89.8% 0 in
01:49 70.2 °F 66.7 °F 30 in ESE 2.4 mph 5 mph 89% 0 in
01:54 70.2 °F 66.7 °F 30 in ENE 2.4 mph 2.9 mph 89% 0 in
01:59 70 °F 66.6 °F 30 in ENE 2.2 mph 3 mph 89% 0 in
02:04 70 °F 66.6 °F 30 in ESE 1.4 mph 4.6 mph 89% 0 in
02:09 69.8 °F 66.4 °F 30 in SSO 1.6 mph 5 mph 89% 0 in
02:14 69.6 °F 66.2 °F 30 in OSO 2.4 mph 5 mph 89% 0 in
02:19 69.6 °F 66.2 °F 30 in SO 2.4 mph 5 mph 89% 0 in
02:24 69.4 °F 66.2 °F 30 in SO 2.4 mph 5 mph 89.1% 0 in
02:29 69.4 °F 66.4 °F 30 in OSO 2.3 mph 4.6 mph 90% 0 in
02:34 69.4 °F 66.4 °F 30 in OSO 2 mph 5 mph 90% 0 in
02:39 69.3 °F 66.2 °F 30 in Oeste 2 mph 4.6 mph 90% 0 in
02:44 69.3 °F 66.2 °F 30 in ONO 2 mph 5 mph 90% 0 in
02:49 69.1 °F 66 °F 30 in OSO 2 mph 4 mph 90% 0 in
02:54 69.1 °F 66 °F 29.9 in OSO 1.8 mph 3 mph 90% 0 in
02:59 69.1 °F 66 °F 29.9 in OSO 1.4 mph 2.9 mph 90% 0 in
03:04 69.1 °F 66 °F 29.9 in Calm   3 mph 90% 0 in
03:09 69.1 °F 66 °F 29.9 in Sur 0.4 mph 4.6 mph 90% 0 in
03:14 69.1 °F 66 °F 29.9 in Sur 1.8 mph 5 mph 90% 0 in
03:19 69.1 °F 66 °F 29.9 in Sur 2.1 mph 5 mph 90% 0 in
03:24 69.1 °F 66 °F 29.9 in SE 2.9 mph 5 mph 90% 0 in
03:29 69.1 °F 66 °F 29.9 in ESE 2.8 mph 5 mph 90% 0 in
03:34 68.9 °F 65.8 °F 29.9 in ESE 2.4 mph 5 mph 90% 0 in
03:39 68.7 °F 65.7 °F 29.9 in Este 2.4 mph 5 mph 90% 0 in
03:44 68.5 °F 65.5 °F 29.9 in ESE 2.4 mph 5 mph 90% 0 in
03:49 68.4 °F 65.3 °F 29.9 in ESE 2.2 mph 3 mph 90% 0 in
03:54 68.4 °F 65.3 °F 29.9 in Este 1.4 mph 3.6 mph 90% 0 in
03:59 68.2 °F 65.1 °F 29.9 in NNE 1.6 mph 4.6 mph 90% 0 in
04:04 67.8 °F 64.9 °F 29.9 in NE 2 mph 5 mph 90.3% 0 in
04:09 67.6 °F 64.9 °F 29.9 in North 2.1 mph 5 mph 91% 0 in
04:14 67.6 °F 64.9 °F 29.9 in NNO 2.4 mph 5 mph 91% 0 in
04:19 67.5 °F 64.9 °F 29.9 in North 2.4 mph 4 mph 91.4% 0 in
04:24 67.5 °F 65.1 °F 29.9 in NNE 2.4 mph 4.6 mph 92% 0 in
04:29 67.5 °F 65.1 °F 29.9 in NE 2.4 mph 5.2 mph 92% 0 in
04:34 67.5 °F 65.5 °F 29.9 in NE 2.4 mph 5 mph 93% 0 in
04:39 67.6 °F 65.5 °F 29.9 in NE 2.4 mph 5 mph 93% 0 in
04:44 67.6 °F 65.5 °F 29.9 in ENE 2.4 mph 4 mph 93% 0 in
04:49 67.6 °F 65.5 °F 29.9 in NE 2.4 mph 4.6 mph 93% 0 in
04:54 67.6 °F 65.5 °F 29.9 in NNE 2.4 mph 5 mph 93% 0 in
04:59 67.6 °F 65.5 °F 29.9 in NE 2.5 mph 5.4 mph 93% 0 in
05:04 67.5 °F 65.5 °F 29.9 in ENE 2.9 mph 6 mph 93% 0 in
05:09 67.6 °F 65.7 °F 29.9 in ENE 2.7 mph 5 mph 93.6% 0 in
05:14 67.6 °F 65.8 °F 29.9 in ENE 2 mph 3 mph 94% 0 in
05:19 67.8 °F 66 °F 29.9 in ENE 1.6 mph 1.8 mph 94% 0 in
05:24 67.8 °F 66 °F 29.9 in Calm   4 mph 94% 0 in
05:29 68 °F 66.2 °F 29.9 in Oeste 0.4 mph 5 mph 93.8% 0 in
05:34 68 °F 65.8 °F 29.9 in Oeste 2 mph 5 mph 93% 0 in
05:39 67.8 °F 65.8 °F 29.9 in Oeste 1.9 mph 4 mph 93% 0 in
05:44 68 °F 65.8 °F 29.9 in Oeste 1.8 mph 2.4 mph 93% 0 in
05:49 68 °F 66 °F 29.9 in Oeste 1.4 mph 3.1 mph 93% 0 in
05:54 68.2 °F 66 °F 29.9 in Calm   4.6 mph 93% 0 in
05:59 68 °F 65.8 °F 29.9 in ENE 0.6 mph 5 mph 93% 0 in
06:04 67.8 °F 65.7 °F 29.9 in ENE 2.4 mph 5 mph 93% 0 in
06:09 67.8 °F 65.8 °F 29.9 in ENE 1.9 mph 2.4 mph 93% 0 in
06:14 68 °F 65.8 °F 29.9 in Calm   2.9 mph 93% 0 in
06:19 68.2 °F 66 °F 29.9 in Calm   3 mph 93% 0 in
06:24 68.2 °F 66 °F 29.9 in Calm   4.6 mph 93% 0 in
06:29 68.2 °F 66 °F 29.9 in ENE 0.4 mph 5 mph 93% 0 in
06:34 68.2 °F 66 °F 29.9 in ENE 1.8 mph 4 mph 93% 0 in
06:39 68 °F 65.8 °F 29.9 in ENE 1.8 mph 4.6 mph 93% 0 in
06:44 68 °F 65.8 °F 29.9 in ESE 1.8 mph 5 mph 93% 0 in
06:49 68 °F 65.8 °F 29.9 in ESE 1.9 mph 5 mph 93% 0 in
06:54 68 °F 66 °F 29.9 in ESE 2 mph 2.9 mph 93.5% 0 in
06:59 68 °F 66 °F 29.9 in ESE 1.9 mph 4 mph 93.5% 0 in
07:04 68 °F 66.2 °F 29.9 in Este 1.8 mph 4.6 mph 94% 0 in
07:09 68 °F 66 °F 29.9 in NO 1.9 mph 5 mph 93.2% 0 in
07:14 68 °F 66.2 °F 29.9 in NO 2 mph 4 mph 93.8% 0 in
07:19 68 °F 66.2 °F 29.9 in NO 1.6 mph 2 mph 94% 0 in
07:24 68.2 °F 66.4 °F 29.9 in Calm   3.5 mph 94% 0 in
07:29 68.2 °F 66.4 °F 29.9 in Calm   3 mph 94% 0 in
07:34 68.2 °F 66.2 °F 29.9 in Calm   3.6 mph 93.3% 0 in
07:39 68 °F 65.8 °F 29.9 in ESE 0.4 mph 4.6 mph 93% 0 in
07:44 67.8 °F 65.7 °F 29.9 in SE 2 mph 5 mph 93% 0 in
07:49 67.6 °F 65.5 °F 29.9 in SE 2.2 mph 5 mph 93% 0 in
07:54 67.6 °F 65.7 °F 29.9 in SSE 2.9 mph 5 mph 93.3% 0 in
07:59 67.8 °F 66 °F 29.9 in SSE 2.7 mph 5 mph 94% 0 in
08:04 67.8 °F 66 °F 29.9 in SSE 2.4 mph 5 mph 94% 0 in
08:09 67.8 °F 66 °F 29.9 in Sur 2.5 mph 5 mph 94% 0 in
08:14 67.8 °F 66 °F 29.9 in Sur 2.9 mph 5 mph 94% 0 in
08:19 67.8 °F 66 °F 29.9 in Sur 2.7 mph 3.6 mph 94% 0 in
08:24 68 °F 66.2 °F 29.9 in Sur 1.8 mph 4 mph 94% 0 in
08:29 68.2 °F 66 °F 29.9 in OSO 1.9 mph 4.7 mph 93.2% 0 in
08:34 68.2 °F 66.2 °F 29.9 in SSO 2 mph 5.8 mph 93% 0 in
08:39 68.4 °F 66.4 °F 29.9 in SSO 2.4 mph 6 mph 93% 0 in
08:44 68.4 °F 66.4 °F 29.9 in Sur 3.6 mph 5.2 mph 93% 0 in
08:49 68.5 °F 66.4 °F 29.9 in SSO 3.5 mph 5.4 mph 93% 0 in
08:54 68.5 °F 66.4 °F 29.9 in SSO 3.1 mph 6 mph 92.5% 0 in
08:59 68.7 °F 66.4 °F 29.9 in SSO 3.1 mph 6.9 mph 92% 0 in
09:04 68.7 °F 66.4 °F 29.9 in SSO 3.1 mph 7 mph 92% 0 in
09:09 68.7 °F 66.4 °F 29.9 in SSO 3.3 mph 6 mph 92% 0 in
09:14 68.7 °F 66.2 °F 29.9 in SSO 4 mph 6 mph 91.4% 0 in
09:19 68.9 °F 66.2 °F 29.9 in Sur 3.8 mph 6 mph 91.1% 0 in
09:24 69.1 °F 66.4 °F 29.9 in SO 3.1 mph 6.9 mph 91% 0 in
09:29 69.3 °F 66.6 °F 29.9 in SO 3.2 mph 7 mph 91% 0 in
09:34 69.4 °F 66.4 °F 29.9 in SO 3.6 mph 6 mph 90.1% 0 in
09:39 69.4 °F 66.2 °F 29.9 in OSO 3.6 mph 6.9 mph 89.6% 0 in
09:44 69.4 °F 66.2 °F 29.9 in SO 3.6 mph 7 mph 89% 0 in
09:49 69.6 °F 66.2 °F 29.9 in SO 3.7 mph 7.4 mph 89% 0 in
09:54 69.6 °F 66.2 °F 29.9 in SO 4.3 mph 8.5 mph 88.6% 0 in
09:59 70 °F 66.2 °F 29.9 in OSO 4.7 mph 11.5 mph 88% 0 in
10:04 70.2 °F 66.4 °F 29.9 in OSO 5.9 mph 12 mph 88% 0 in
10:09 70.2 °F 66.2 °F 29.9 in OSO 5.9 mph 12 mph 87.1% 0 in
10:14 70.3 °F 66.4 °F 29.9 in OSO 5.9 mph 9 mph 87% 0 in
10:19 70.5 °F 66.4 °F 29.9 in OSO 5.7 mph 10.4 mph 86.6% 0 in
10:24 70.7 °F 66 °F 29.9 in SO 4.7 mph 10.4 mph 85.5% 0 in
10:29 70.9 °F 66 °F 29.9 in SSO 4.8 mph 7.4 mph 85% 0 in
10:34 70.9 °F 66.2 °F 29.9 in Sur 5.2 mph 8.1 mph 85% 0 in
10:39 71.1 °F 66.4 °F 29.9 in Sur 5.1 mph 8 mph 85.3% 0 in
10:44 71.1 °F 66.7 °F 29.9 in SSE 4.7 mph 7 mph 86% 0 in
10:49 71.2 °F 66.4 °F 29.9 in SSO 4.3 mph 6 mph 84.9% 0 in
10:54 71.4 °F 65.8 °F 29.9 in OSO 3.1 mph 6.2 mph 82.8% 0 in
10:59 71.8 °F 66 °F 29.9 in OSO 3.4 mph 8.5 mph 82.1% 0 in
11:04 71.8 °F 65.5 °F 29.9 in Oeste 4 mph 15 mph 80.7% 0 in
11:09 71.8 °F 65.3 °F 29.9 in ONO 3.8 mph 15 mph 80% 0 in
11:14 72 °F 65.5 °F 29.9 in OSO 2.9 mph 5.8 mph 79.9% 0 in
11:19 72 °F 65.3 °F 29.9 in OSO 2.9 mph 39.1 mph 79.2% 0 in
11:24 72.1 °F 65.3 °F 29.9 in ONO 2.9 mph 39.1 mph 79% 0 in
11:29 72.1 °F 65.3 °F 29.9 in ONO 2.9 mph 27 mph 79% 0 in
11:34 72.1 °F 65.3 °F 29.9 in ONO 2.9 mph 26.5 mph 79% 0 in
11:39 72.1 °F 65.3 °F 29.9 in ONO 0.6 mph 26.5 mph 79% 0 in
11:44 72.1 °F 65.3 °F 29.9 in Calm   26 mph 79% 0 in
11:49 72.1 °F 65.3 °F 29.9 in Calm     79% 0 in
11:54 72.1 °F 65.3 °F 29.9 in Calm     79% 0 in
11:59 72.1 °F 65.3 °F 29.9 in Calm     79% 0.12 in
12:04 72.1 °F 65.3 °F 29.9 in Calm     79% 0.12 in
12:09 72.1 °F 65.3 °F 29.9 in Calm     79% 0.12 in
12:14 72.1 °F 65.3 °F 29.9 in Calm     79% 0.12 in
12:19 72.1 °F 65.3 °F 29.9 in Calm     79% 0.12 in
12:24 72.1 °F 65.3 °F 29.9 in Calm     79% 0.12 in
12:29 72.1 °F 65.3 °F 29.9 in Calm     79% 0.12 in
12:34 72.1 °F 65.3 °F 29.9 in Calm     79% 0.12 in
12:39 72.1 °F 65.3 °F 29.9 in Calm     79% 0.12 in
12:44 72.1 °F 65.3 °F 29.9 in Calm     79% 0.12 in
12:49 72.1 °F 65.3 °F 29.9 in Calm     79% 0.12 in
12:54 72.1 °F 65.3 °F 29.9 in Calm     79% 0.12 in
12:59 72.1 °F 65.3 °F 29.9 in Calm     79% 0.12 in
13:04 72.1 °F 65.3 °F 29.9 in Calm     79% 0 in
13:09 72.1 °F 65.3 °F 29.9 in Calm     79% 0 in
13:14 72.1 °F 65.3 °F 29.9 in Calm     79% 0 in
13:19 72.1 °F 65.3 °F 29.9 in Calm     79% 0 in
13:24 72.1 °F 65.3 °F 29.9 in Calm     79% 0 in
13:29 72.1 °F 65.3 °F 29.9 in Calm     79% 0 in
13:34 72.1 °F 65.3 °F 29.9 in Calm     79% 0 in
13:39 72.1 °F 65.3 °F 29.9 in Calm     79% 0 in
13:44 72.1 °F 65.3 °F 29.9 in Calm     79% 0 in
13:49 72.1 °F 65.3 °F 29.9 in Calm     79% 0 in
13:54 72.1 °F 65.3 °F 29.9 in Calm     79% 0 in
13:59 72.1 °F 65.3 °F 29.9 in Calm     79% 0 in
14:04 72.1 °F 65.3 °F 29.9 in Calm     79% 0 in
14:09 72.1 °F 65.3 °F 29.9 in Calm     79% 0 in
14:14 72.1 °F 65.3 °F 29.9 in Calm     79% 0 in
14:19 72.1 °F 65.3 °F 29.9 in Calm     79% 0 in
14:24 72.1 °F 65.3 °F 29.9 in Calm     79% 0 in
14:29 72.1 °F 65.3 °F 29.9 in Calm     79% 0 in
14:34 72.1 °F 65.3 °F 29.9 in Calm     79% 0 in
14:39 72.1 °F 65.3 °F 29.9 in Calm     79% 0 in
14:44 72.1 °F 65.3 °F 29.9 in Calm     79% 0 in
14:49 72.1 °F 65.3 °F 29.9 in Calm     79% 0 in
14:54 72.1 °F 65.3 °F 29.9 in Calm     79% 0 in
14:59 72.1 °F 65.3 °F 29.9 in Calm     79% 0 in
15:04 72.1 °F 65.3 °F 29.9 in Calm     79% 0 in
15:09 72.1 °F 65.3 °F 29.8 in Calm     79% 0 in
15:14 72.1 °F 65.3 °F 29.8 in Calm     79% 0 in
15:19 72.1 °F 65.3 °F 29.8 in Calm     79% 0 in
15:24 72.1 °F 65.3 °F 29.8 in Calm     79% 0 in
15:29 72.1 °F 65.3 °F 29.8 in Calm     79% 0 in
15:34 72.1 °F 65.3 °F 29.8 in Calm     79% 0 in
15:39 72.1 °F 65.3 °F 29.8 in Calm     79% 0 in
15:44 72.1 °F 65.3 °F 29.8 in Calm     79% 0 in
15:49 72.1 °F 65.3 °F 29.8 in Calm     79% 0 in
15:54 72.1 °F 65.3 °F 29.8 in Calm     79% 0 in
15:59 72.1 °F 65.3 °F 29.8 in Calm     79% 0 in
16:04 72.1 °F 65.3 °F 29.8 in Calm     79% 0 in
16:09 72.1 °F 65.3 °F 29.8 in Calm     79% 0 in
16:14 72.1 °F 65.3 °F 29.8 in Calm     79% 0 in
16:19 72.1 °F 65.3 °F 29.8 in Calm     79% 0 in
16:24 72.1 °F 65.3 °F 29.8 in Calm     79% 0 in
16:29 72.1 °F 65.3 °F 29.8 in Calm     79% 0 in
16:34 72.1 °F 65.3 °F 29.8 in Calm     79% 0 in
16:39 72.1 °F 65.3 °F 29.8 in Calm     79% 0 in
16:44 72.1 °F 65.3 °F 29.8 in Calm     79% 0 in
16:49 72.1 °F 65.3 °F 29.8 in Calm     79% 0 in
16:54 72.1 °F 65.3 °F 29.8 in Calm     79% 0 in
16:59 72.1 °F 65.3 °F 29.8 in Calm     79% 0 in
17:04 72.1 °F 65.3 °F 29.8 in Calm     79% 0 in
17:09 72.1 °F 65.3 °F 29.8 in Calm     79% 0 in
17:14 72.1 °F 65.3 °F 29.8 in Calm     79% 0 in
17:19 72.1 °F 65.3 °F 29.8 in Calm     79% 0 in
17:24 72.1 °F 65.3 °F 29.8 in Calm     79% 0 in
17:29 72.1 °F 65.3 °F 29.8 in Calm     79% 0 in
17:34 72.1 °F 65.3 °F 29.8 in Calm     79% 0 in
17:39 72.1 °F 65.3 °F 29.8 in Calm     79% 0 in
17:44 72.1 °F 65.3 °F 29.8 in Calm     79% 0 in
17:49 72.1 °F 65.3 °F 29.8 in Calm     79% 0 in
17:54 72.1 °F 65.3 °F 29.8 in Calm     79% 0 in
17:59 72.1 °F 65.3 °F 29.8 in Calm     79% 0 in
18:04 72.1 °F 65.3 °F 29.8 in Calm     79% 0 in
18:09 72.1 °F 65.3 °F 29.8 in Calm     79% 0 in
18:14 72.1 °F 65.3 °F 29.8 in Calm     79% 0 in
18:19 72.1 °F 65.3 °F 29.8 in Calm     79% 0 in
18:24 72.1 °F 65.3 °F 29.8 in Calm     79% 0 in
18:29 72.1 °F 65.3 °F 29.8 in Calm     79% 0 in
18:34 72.1 °F 65.3 °F 29.8 in Calm     79% 0 in
18:39 72.1 °F 65.3 °F 29.8 in Calm     79% 0 in
18:44 72.1 °F 65.3 °F 29.8 in Calm     79% 0 in
18:49 72.1 °F 65.3 °F 29.8 in Calm     79% 0 in
18:54 72.1 °F 65.3 °F 29.8 in Calm     79% 0 in
18:59 72.1 °F 65.3 °F 29.8 in Calm     79% 0 in
19:04 72.1 °F 65.3 °F 29.8 in Calm     79% 0 in
19:09 72.1 °F 65.3 °F 29.8 in Calm     79% 0 in
19:14 72.1 °F 65.3 °F 29.8 in Calm     79% 0 in
19:19 72.1 °F 65.3 °F 29.8 in Calm     79% 0 in
19:24 72.1 °F 65.3 °F 29.8 in Calm     79% 0 in
19:29 72.1 °F 65.3 °F 29.8 in Calm     79% 0 in
19:34 72.1 °F 65.3 °F 29.8 in Calm     79% 0 in
19:39 72.1 °F 65.3 °F 29.8 in Calm     79% 0 in
19:44 72.1 °F 65.3 °F 29.8 in Calm     79% 0 in
19:49 72.1 °F 65.3 °F 29.8 in Calm     79% 0 in
19:54 72.1 °F 65.3 °F 29.8 in Calm     79% 0 in
19:59 72.1 °F 65.3 °F 29.8 in Calm     79% 0 in
20:04 72.1 °F 65.3 °F 29.8 in Calm     79% 0 in
20:09 72.1 °F 65.3 °F 29.8 in Calm     79% 0 in
Murcia-Puente Tocinos, España
Compliments of Weather Underground - 2.75 mb

La estación de MeteoMurcia.com, publica sus datos en los siguientes proyectos:

Weather Underground PWS IMURCIAP2 Meteoclimatic www.awekas.at

W3Counter
Web Analytics